Time;durP1;ratioP1;P1;durP2;ratioP2;P2;SDS_P1;SDS_P2;PMS_P1;PMS_P2;Temp;Humidity;BMP_temperature;BMP_pressure;BME280_temperature;BME280_humidity;BME280_pressure;Samples;Min_cycle;Max_cycle;Signal;HPM_P1;HPM_P2
2022/05/16 00:07:35;;;;;;;3.50;1.40;;;;;;;16.05;61.72;101638.91;20952049;28;20261;-68
2022/05/16 00:17:57;;;;;;;6.40;1.38;;;;;;;15.88;61.88;101636.69;20957700;28;21008;-68
2022/05/16 00:28:18;;;;;;;;;;;;;;;15.68;62.50;101614.47;20933061;28;20059;-67
2022/05/16 00:38:40;;;;;;;3.80;1.40;;;;;;;15.57;61.92;101611.81;20936957;28;19927;-67
2022/05/16 00:49:04;;;;;;;2.22;1.25;;;;;;;15.39;62.26;101596.53;20950088;28;20037;-66
2022/05/16 00:59:45;;;;;;;3.67;1.60;;;;;;;15.35;62.62;101589.81;20931464;28;20581;-67
2022/05/16 01:10:09;;;;;;;4.13;1.47;;;;;;;15.20;62.49;101569.88;20947049;28;20044;-67
2022/05/16 01:21:12;;;;;;;2.03;1.15;;;;;;;15.07;63.36;101566.44;20967302;28;20053;-67
2022/05/16 01:31:34;;;;;;;2.75;1.25;;;;;;;14.98;62.67;101567.09;20952976;28;20407;-66
2022/05/16 01:41:56;;;;;;;2.85;1.55;;;;;;;14.82;63.00;101556.00;20945591;28;20686;-67
2022/05/16 01:52:17;;;;;;;4.38;1.50;;;;;;;14.73;62.86;101563.69;20933938;28;20052;-67
2022/05/16 02:02:42;;;;;;;4.22;1.48;;;;;;;14.65;62.85;101537.97;20959260;28;20700;-67
2022/05/16 02:13:04;;;;;;;4.15;1.80;;;;;;;14.58;63.25;101522.75;20945024;28;20040;-67
2022/05/16 02:34:05;;;;;;;5.60;1.85;;;;;;;14.32;63.56;101521.13;20960155;28;19950;-67
2022/05/16 02:44:27;;;;;;;5.78;1.70;;;;;;;14.24;64.06;101517.34;20913392;28;20048;-67
2022/05/16 02:54:51;;;;;;;6.38;1.75;;;;;;;14.17;64.12;101503.81;20975471;28;20036;-67
2022/05/16 03:05:13;;;;;;;4.35;1.70;;;;;;;14.10;64.10;101493.81;20941174;28;20520;-67
2022/05/16 03:15:36;;;;;;;4.75;1.60;;;;;;;14.00;64.42;101492.72;20955592;28;20071;-68
2022/05/16 03:25:58;;;;;;;3.97;1.60;;;;;;;13.89;64.30;101490.88;20957242;28;20327;-66
2022/05/16 03:36:19;;;;;;;8.97;2.07;;;;;;;13.82;64.44;101491.38;20966329;28;20051;-68
2022/05/16 03:46:41;;;;;;;4.90;1.60;;;;;;;13.75;64.83;101482.22;20994775;28;20279;-67
2022/05/16 03:57:03;;;;;;;16.60;2.47;;;;;;;13.61;66.84;101466.59;20961632;28;20047;-67
2022/05/16 04:07:24;;;;;;;;;;;;;;;13.59;68.72;101455.38;20943898;28;20047;-67
2022/05/16 04:17:46;;;;;;;7.45;1.90;;;;;;;13.64;65.35;101463.78;20971479;28;19924;-66
2022/05/16 04:28:09;;;;;;;4.43;1.83;;;;;;;13.70;64.93;101452.88;20974639;28;20044;-67
2022/05/16 04:38:31;;;;;;;5.22;1.88;;;;;;;13.66;64.88;101451.41;20932556;28;20052;-67
2022/05/16 04:48:53;;;;;;;3.85;1.70;;;;;;;13.68;64.88;101428.59;20966278;28;20048;-68
2022/05/16 04:59:15;;;;;;;;;;;;;;;13.81;69.38;101445.16;20945917;28;20060;-69
2022/05/16 05:20:17;;;;;;;6.10;1.67;;;;;;;14.26;64.45;101452.50;20999095;28;20060;-67
2022/05/16 05:30:38;;;;;;;4.45;1.95;;;;;;;14.47;64.15;101452.66;20997678;28;20055;-67
2022/05/16 05:41:00;;;;;;;5.82;1.95;;;;;;;14.77;64.28;101455.72;20932632;28;20040;-67
2022/05/16 05:51:22;;;;;;;7.00;2.15;;;;;;;15.17;63.43;101438.75;20985679;28;20048;-67
2022/05/16 06:01:43;;;;;;;7.65;2.40;;;;;;;15.68;62.40;101453.31;20941996;28;20041;-67
2022/05/16 06:12:06;;;;;;;;;;;;;;;15.94;66.31;101439.00;20969909;28;20044;-68
2022/05/16 06:22:34;;;;;;;8.48;1.95;;;;;;;16.19;61.96;101430.88;20955102;28;19924;-68
2022/05/16 06:32:55;;;;;;;;;;;;;;;16.64;62.40;101421.06;20998047;28;20040;-67
2022/05/16 06:43:18;;;;;;;;;;;;;;;16.95;62.98;101412.34;20966731;28;19928;-67
2022/05/16 06:53:40;;;;;;;;;;;;;;;17.28;60.21;101420.13;20956817;28;19928;-68
2022/05/16 07:04:02;;;;;;;;;;;;;;;17.50;60.50;101420.03;20927957;28;19920;-70
2022/05/16 07:14:24;;;;;;;;;;;;;;;17.79;60.95;101421.06;20958027;28;20003;-68
2022/05/16 07:24:45;;;;;;;;;;;;;;;18.01;59.50;101421.72;20968759;28;19920;-68
2022/05/16 07:35:08;;;;;;;;;;;;;;;18.40;59.73;101399.84;20943925;28;20393;-68
2022/05/16 07:45:31;;;;;;;6.90;1.70;;;;;;;18.70;59.13;101400.59;20958635;28;19931;-68
2022/05/16 07:55:55;;;;;;;3.75;1.67;;;;;;;18.89;59.44;101390.06;20900665;28;20041;-69
2022/05/16 08:06:17;;;;;;;4.75;2.05;;;;;;;19.03;59.50;101397.59;20952974;28;20051;-67
2022/05/16 08:16:38;;;;;;;7.03;1.80;;;;;;;19.33;59.25;101410.69;20873165;28;20045;-69
2022/05/16 08:27:02;;;;;;;;;;;;;;;19.69;58.21;101391.41;20934715;28;20051;-69
2022/05/16 08:48:12;;;;;;;8.35;1.80;;;;;;;20.32;56.38;101365.00;20910935;28;19926;-66
2022/05/16 08:58:38;;;;;;;;;;;;;;;20.65;56.50;101378.47;20895555;28;20048;-67
2022/05/16 09:09:11;;;;;;;;;;;;;;;20.91;56.30;101392.69;20922290;28;19939;-67
2022/05/16 09:19:54;;;;;;;;;;;;;;;21.26;55.55;101400.59;20931925;28;19924;-66
2022/05/16 09:30:17;;;;;;;;;;;;;;;21.58;55.53;101369.06;20972572;28;19946;-65
2022/05/16 09:40:53;;;;;;;;;;;;;;;21.89;55.78;101357.81;20959128;28;20368;-65
2022/05/16 09:51:20;;;;;;;;;;;;;;;22.22;54.79;101358.78;20906459;28;20356;-66
2022/05/16 10:01:51;;;;;;;;;;;;;;;22.49;55.06;101368.22;20948388;28;19924;-63
2022/05/16 10:12:32;;;;;;;;;;;;;;;23.04;54.36;101353.34;20935908;28;19920;-65
2022/05/16 10:22:59;;;;;;;6.15;1.98;;;;;;;23.42;53.28;101342.06;20953238;28;19921;-63
2022/05/16 10:33:32;;;;;;;7.05;1.80;;;;;;;24.05;51.49;101337.56;20950663;28;20131;-65
2022/05/16 10:44:08;;;;;;;10.88;2.30;;;;;;;24.61;51.85;101338.97;20902116;28;20540;-67
2022/05/16 10:54:30;;;;;;;7.18;2.00;;;;;;;25.09;52.32;101327.13;20922124;28;20136;-64
2022/05/16 11:05:15;;;;;;;6.25;1.90;;;;;;;25.53;45.44;101319.06;20925358;28;20424;-64
2022/05/16 11:15:48;;;;;;;9.77;2.20;;;;;;;25.29;54.27;101315.78;20962829;28;20040;-67
2022/05/16 11:26:20;;;;;;;8.45;2.40;;;;;;;25.60;48.29;101313.81;20923716;28;20585;-64
2022/05/16 11:36:45;;;;;;;5.32;1.85;;;;;;;26.07;52.98;101314.25;21033546;28;20211;-67
2022/05/16 11:47:33;;;;;;;7.57;2.03;;;;;;;26.69;42.77;101317.09;20985483;28;20673;-67
2022/05/16 12:09:17;;;;;;;3.42;1.50;;;;;;;27.05;41.38;101309.00;20880354;28;20037;-67
2022/05/16 12:19:41;;;;;;;6.78;1.80;;;;;;;26.94;53.03;101314.88;20914108;28;20397;-67
2022/05/16 12:30:08;;;;;;;7.93;2.10;;;;;;;26.73;52.66;101310.34;20890678;28;20156;-68
2022/05/16 12:40:54;;;;;;;5.80;1.90;;;;;;;26.24;48.35;101311.22;20922248;28;20072;-67
2022/05/16 12:51:21;;;;;;;8.55;1.75;;;;;;;26.40;45.35;101301.09;20925081;28;20127;-67
2022/05/16 13:01:57;;;;;;;3.70;1.83;;;;;;;26.45;46.97;101297.88;20994219;28;20048;-68
2022/05/16 13:12:35;;;;;;;4.32;1.45;;;;;;;26.66;47.54;101288.03;20940176;28;20094;-65
2022/05/16 13:22:57;;;;;;;3.88;1.70;;;;;;;26.59;52.45;101284.47;20981975;28;20047;-64
2022/05/16 13:33:26;;;;;;;8.18;2.08;;;;;;;26.45;44.28;101276.50;20942700;28;20041;-64
2022/05/16 13:43:48;;;;;;;5.13;1.90;;;;;;;26.46;52.23;101272.81;20910339;28;20041;-65
2022/05/16 13:54:22;;;;;;;8.75;1.90;;;;;;;26.56;46.11;101268.00;20973712;28;20907;-64
2022/05/16 14:04:47;;;;;;;7.45;2.20;;;;;;;26.55;50.56;101261.78;20959424;28;20052;-64
2022/05/16 14:15:16;;;;;;;33.17;5.13;;;;;;;26.61;49.54;101255.69;20943924;28;20037;-63
2022/05/16 14:25:40;;;;;;;5.67;2.00;;;;;;;26.73;51.25;101264.00;20893753;28;20486;-64
2022/05/16 14:36:08;;;;;;;10.18;2.05;;;;;;;26.67;43.97;101254.91;20893699;28;20044;-63
2022/05/16 14:46:50;;;;;;;5.22;1.73;;;;;;;26.65;52.18;101250.78;20897295;28;20048;-65
2022/05/16 14:57:11;;;;;;;10.02;2.00;;;;;;;26.57;52.83;101246.38;20907007;28;20033;-65
2022/05/16 15:07:39;;;;;;;8.27;2.05;;;;;;;26.50;51.07;101242.81;20921070;28;20045;-64
2022/05/16 15:18:00;;;;;;;6.47;2.08;;;;;;;26.39;53.46;101242.47;20926234;28;20055;-64
2022/05/16 15:28:22;;;;;;;8.38;1.92;;;;;;;26.26;53.51;101233.47;20914591;28;20072;-64
2022/05/16 15:38:44;;;;;;;7.93;1.92;;;;;;;26.05;52.64;101236.13;20923222;28;20048;-68
2022/05/16 15:49:06;;;;;;;6.50;2.20;;;;;;;25.89;53.59;101249.72;20904826;28;20509;-65
2022/05/16 15:59:27;;;;;;;7.13;2.05;;;;;;;25.90;53.66;101246.03;20883882;28;20037;-64
2022/05/16 16:09:49;;;;;;;5.93;2.30;;;;;;;25.91;52.36;101247.66;20904375;28;20622;-65
2022/05/16 16:20:12;;;;;;;6.13;2.20;;;;;;;25.81;53.22;101244.44;20898153;28;20416;-65
2022/05/16 16:30:37;;;;;;;6.10;2.20;;;;;;;25.81;53.47;101236.44;20882737;28;20060;-65
2022/05/16 16:41:00;;;;;;;8.70;2.20;;;;;;;25.83;53.62;101237.06;20896403;28;20147;-65
2022/05/16 17:02:08;;;;;;;6.45;2.28;;;;;;;25.73;54.22;101226.66;20906004;28;20045;-62
2022/05/16 17:12:30;;;;;;;7.93;2.50;;;;;;;25.63;53.52;101230.63;20912896;28;20059;-62
2022/05/16 17:22:51;;;;;;;6.10;2.70;;;;;;;25.55;53.47;101260.09;20903273;28;20068;-63
2022/05/16 17:33:13;;;;;;;12.30;3.15;;;;;;;25.25;52.93;101274.44;20901493;28;20052;-62
2022/05/16 17:43:55;;;;;;;7.85;2.40;;;;;;;24.93;53.88;101289.91;20905412;28;20612;-64
2022/05/16 17:54:26;;;;;;;13.73;2.67;;;;;;;24.74;52.93;101307.19;20884864;28;20048;-62
2022/05/16 18:04:48;;;;;;;8.70;2.58;;;;;;;24.61;54.36;101322.97;20897097;28;20044;-63
2022/05/16 18:15:27;;;;;;;15.80;5.57;;;;;;;24.08;58.99;101374.53;20912951;28;20055;-64
2022/05/16 18:25:51;;;;;;;20.40;10.40;;;;;;;22.89;63.88;101392.22;20911957;28;20126;-63
2022/05/16 18:36:12;;;;;;;18.40;11.25;;;;;;;22.31;67.20;101408.28;20934955;28;20052;-63
2022/05/16 18:57:14;;;;;;;25.30;16.07;;;;;;;21.01;74.94;101454.41;20931208;28;20032;-64
2022/05/16 19:07:37;;;;;;;25.02;16.17;;;;;;;20.58;71.00;101478.06;20919087;28;20525;-64
2022/05/16 19:18:00;;;;;;;24.00;16.67;;;;;;;20.25;75.17;101495.50;20924234;28;20045;-64
2022/05/16 19:39:01;;;;;;;22.38;15.10;;;;;;;19.50;78.45;101494.63;20915540;28;20037;-64
2022/05/16 19:49:24;;;;;;;20.73;13.95;;;;;;;19.30;74.67;101511.47;20922465;28;20049;-63
2022/05/16 19:59:48;;;;;;;16.33;11.50;;;;;;;19.19;76.80;101530.09;20933298;28;20048;-64
2022/05/16 20:08:29;;;;;;;13.82;9.85;;;;;;;19.16;74.33;101546.22;1032034;28;20406;-64
2022/05/16 20:09:20;;;;;;;12.60;9.75;;;;;;;19.25;77.63;101542.75;1043948;28;20057;-64
2022/05/16 20:10:12;;;;;;;12.68;9.30;;;;;;;19.32;79.12;101543.88;1023309;28;20054;-65
2022/05/16 20:11:04;;;;;;;12.52;9.85;;;;;;;19.33;72.63;101542.91;1041639;28;20037;-63
2022/05/16 20:11:58;;;;;;;11.57;9.80;;;;;;;19.35;72.81;101540.97;1017349;29;20110;-63
2022/05/16 20:12:50;;;;;;;16.52;9.40;;;;;;;19.36;73.24;101549.72;1022697;28;20137;-64
2022/05/16 20:13:42;;;;;;;14.55;9.57;;;;;;;19.35;75.08;101550.69;1017850;28;20060;-64
2022/05/16 20:14:33;;;;;;;14.25;9.60;;;;;;;19.31;77.50;101547.50;1022438;28;20528;-64
2022/05/16 20:15:25;;;;;;;12.52;8.70;;;;;;;19.35;73.94;101551.56;1033926;28;20053;-64
2022/05/16 20:16:16;;;;;;;10.57;8.70;;;;;;;19.36;73.93;101557.66;1034565;28;20058;-64
2022/05/16 20:17:08;;;;;;;13.02;9.15;;;;;;;19.36;74.64;101558.50;1026960;28;20051;-64
2022/05/16 20:18:03;;;;;;;13.88;9.45;;;;;;;19.37;75.81;101560.16;1020955;29;20170;-63
2022/05/16 20:18:54;;;;;;;13.95;9.18;;;;;;;19.33;76.70;101558.78;1022533;28;20433;-64
2022/05/16 20:19:46;;;;;;;12.40;9.88;;;;;;;19.35;78.78;101559.50;1017633;28;20091;-64
2022/05/16 20:20:39;;;;;;;12.95;9.48;;;;;;;19.37;75.93;101560.16;1021030;28;20055;-64
2022/05/16 20:21:31;;;;;;;11.85;9.27;;;;;;;19.38;74.29;101561.84;1020635;28;20070;-64
2022/05/16 20:25:47;;;;;;;10.07;8.98;;;;;;;19.33;75.99;101572.00;1022190;28;20571;-63
2022/05/16 20:26:19;;;;;;;11.50;9.00;;;;;;;19.30;77.45;101574.91;1029662;28;20050;-64
2022/05/16 20:27:10;;;;;;;11.77;8.90;;;;;;;19.37;75.34;101581.31;1037531;28;20446;-63
2022/05/16 20:28:05;;;;;;;10.95;9.50;;;;;;;19.44;75.93;101577.16;1042772;28;20789;-63
2022/05/16 20:28:57;;;;;;;11.70;9.15;;;;;;;19.45;75.51;101578.84;1040539;28;20393;-64
2022/05/16 20:29:48;;;;;;;13.55;9.68;;;;;;;19.46;75.65;101580.50;1034480;28;20414;-64
2022/05/16 20:30:42;;;;;;;11.18;9.00;;;;;;;19.46;75.39;101585.81;1037278;28;20056;-64
2022/05/16 20:31:37;;;;;;;12.70;9.85;;;;;;;19.49;75.65;101588.19;1019426;28;20084;-64
2022/05/16 20:32:30;;;;;;;13.65;10.10;;;;;;;19.48;75.86;101583.88;1020152;28;20040;-64
2022/05/16 20:33:23;;;;;;;16.33;9.35;;;;;;;19.49;76.46;101580.25;1019163;29;20481;-64
2022/05/16 20:34:15;;;;;;;10.57;9.48;;;;;;;19.41;76.18;101582.72;1019290;28;20058;-64
2022/05/16 20:35:07;;;;;;;13.07;9.88;;;;;;;19.42;76.12;101579.09;1014179;29;20064;-63
2022/05/16 20:35:59;;;;;;;11.68;9.52;;;;;;;19.43;78.01;101575.50;1018232;28;20129;-64
2022/05/16 20:36:51;;;;;;;12.63;9.60;;;;;;;19.44;76.12;101577.16;1034123;28;20049;-64
2022/05/16 20:37:42;;;;;;;13.10;9.90;;;;;;;19.47;76.38;101576.91;1033696;28;20530;-64
2022/05/16 20:38:34;;;;;;;12.25;9.25;;;;;;;19.48;75.75;101576.75;1022413;28;20376;-64
2022/05/16 20:39:25;;;;;;;13.15;9.52;;;;;;;19.48;76.11;101575.94;1023067;28;20140;-63
2022/05/16 20:40:18;;;;;;;12.38;10.02;;;;;;;19.49;75.81;101580.25;1017265;29;20055;-64
2022/05/16 20:41:10;;;;;;;13.25;9.88;;;;;;;19.44;78.18;101579.81;1020739;28;20534;-64
2022/05/16 20:42:02;;;;;;;12.23;9.75;;;;;;;19.47;76.95;101582.19;1023617;28;20055;-64
2022/05/16 20:42:57;;;;;;;13.50;9.95;;;;;;;19.45;78.43;101578.84;1019758;28;20534;-64
2022/05/16 20:53:35;;;;;;;11.82;9.60;;;;;;;18.94;80.84;101574.63;20492615;28;20827;-64
2022/05/16 21:03:57;;;;;;;15.77;11.70;;;;;;;18.72;81.18;101588.88;20440207;28;20047;-64
2022/05/16 21:14:18;;;;;;;21.42;14.05;;;;;;;18.64;80.37;101601.88;20422552;28;20171;-64
2022/05/16 21:24:40;;;;;;;23.02;14.20;;;;;;;18.50;80.86;101609.34;20415020;28;20070;-64
2022/05/16 21:35:02;;;;;;;22.88;16.48;;;;;;;18.43;81.43;101603.75;20401533;28;20044;-64
2022/05/16 21:45:27;;;;;;;22.67;16.95;;;;;;;18.56;80.19;101609.66;20420358;29;20043;-64
2022/05/16 21:55:49;;;;;;;23.58;17.33;;;;;;;18.51;80.37;101611.84;20415256;28;20056;-65
2022/05/16 22:06:11;;;;;;;30.13;18.40;;;;;;;18.53;81.14;101609.91;20404925;29;20058;-65
2022/05/16 22:16:33;;;;;;;29.73;19.15;;;;;;;18.48;81.22;101614.72;20343471;29;20059;-64
2022/05/16 22:26:54;;;;;;;26.35;19.80;;;;;;;18.40;82.75;101608.44;20356746;29;20054;-64
2022/05/16 22:37:16;;;;;;;32.97;22.10;;;;;;;18.36;83.55;101632.56;20368548;29;20047;-64
2022/05/16 22:47:37;;;;;;;33.03;21.73;;;;;;;18.36;82.97;101629.94;20361257;29;20052;-65
2022/05/16 22:57:59;;;;;;;32.08;20.88;;;;;;;18.36;81.57;101622.00;20364926;29;20052;-63
2022/05/16 23:08:20;;;;;;;28.38;19.73;;;;;;;18.33;82.23;101622.28;20357744;29;20050;-63
2022/05/16 23:18:42;;;;;;;29.65;20.27;;;;;;;18.21;83.05;101617.97;20377343;28;20055;-63
2022/05/16 23:29:03;;;;;;;29.00;20.98;;;;;;;18.18;82.66;101628.81;20362663;29;20420;-65
2022/05/16 23:39:25;;;;;;;35.85;21.70;;;;;;;18.13;83.10;101644.19;20370893;29;20384;-64
2022/05/16 23:49:47;;;;;;;34.08;19.70;;;;;;;18.15;83.03;101650.19;20369114;29;20047;-64
